Nisshoumaru — JD3093 — position and weather

sailwx.info

Track history (hours):
 
Tides and Currents Weather Stations Pressure Air Temp Water Temp Dewpoint Dewpoint Depression Visibility Wind Speed Wind Dir Waves Ship Positions

Nisshoumaru

Last reported at 2015-Mar-27 05:07 UTC. Time now 2015-Mar-31 06:47 UTC.
Position N 34°37' E 134°54'.

Length 76 m; draft 4 m.

Type: Cargo ship. MMSI: 431001549.

Date/timePositionNaut miles runAvg speedWind from/ knotsBaromVisibWave heightAir tempDewpointWater temp
2015-Mar-27 05:07N 34°37' E 134°54'812.9
2015-Mar-27 04:32N 34°36' E 135°04'1111.5
2015-Mar-27 03:33N 34°34' E 135°17'6 6.3
2015-Mar-27 02:32N 34°31' E 135°24'0 0.0
2015-Mar-27 01:33N 34°31' E 135°24'0 0.0
2015-Mar-27 00:31N 34°31' E 135°24'0 0.0
2015-Mar-26 23:29N 34°31' E 135°24'2 1.8
2015-Mar-26 22:27N 34°32' E 135°22'0 0.1
2015-Mar-26 21:30N 34°32' E 135°22'0 0.1
2015-Mar-26 20:29N 34°32' E 135°22'1112.2
2015-Mar-26 19:33N 34°26' E 135°10'1312.2
2015-Mar-26 18:29N 34°17' E 134°59'22910.0
2015-Mar-25 19:31N 35°02' E 139°32'1212.4
2015-Mar-25 18:33N 35°09' E 139°44'1211.9
2015-Mar-25 17:34N 35°21' E 139°42'8 7.9
2015-Mar-25 16:34N 35°22' E 139°52'1 1.4
2015-Mar-25 15:33N 35°22' E 139°54'0 0.0
2015-Mar-25 14:34N 35°22' E 139°54'0 0.1
2015-Mar-25 13:33N 35°22' E 139°54'0 0.0
2015-Mar-25 12:33N 35°22' E 139°54'0 0.0
2015-Mar-25 11:33N 35°22' E 139°54'0 0.0
2015-Mar-25 10:33N 35°22' E 139°54'0 0.0
2015-Mar-25 09:29N 35°22' E 139°54'0 0.0
2015-Mar-25 08:33N 35°22' E 139°54'0 0.1
2015-Mar-25 07:33N 35°22' E 139°54'0 0.0
2015-Mar-25 06:34N 35°22' E 139°54'0 0.0
2015-Mar-25 05:34N 35°22' E 139°54'0 0.0
2015-Mar-25 04:33N 35°22' E 139°54'0 0.0
2015-Mar-25 03:33N 35°22' E 139°54'0 0.0
2015-Mar-25 02:33N 35°22' E 139°54'0 0.0
2015-Mar-25 01:33N 35°22' E 139°54'0 0.0
2015-Mar-25 00:33N 35°22' E 139°54'0 0.0
2015-Mar-24 23:33N 35°22' E 139°54'0 0.0
2015-Mar-24 22:33N 35°22' E 139°54'0 0.0
2015-Mar-24 21:33N 35°22' E 139°54'0 0.0
2015-Mar-24 20:33N 35°22' E 139°54'0 0.0
2015-Mar-24 19:33N 35°22' E 139°54'0 0.0
2015-Mar-24 18:34N 35°22' E 139°54'0 0.0
2015-Mar-24 17:34N 35°22' E 139°54'0 0.0
2015-Mar-24 16:32N 35°22' E 139°54'0 0.0
2015-Mar-24 15:33N 35°22' E 139°54'0 0.0
2015-Mar-24 14:33N 35°22' E 139°54'0 0.0
2015-Mar-24 13:33N 35°22' E 139°54'0 0.0
2015-Mar-24 12:33N 35°22' E 139°54'0 0.0
2015-Mar-24 11:33N 35°22' E 139°54'0 0.0
2015-Mar-24 10:33N 35°22' E 139°54'0 0.0
2015-Mar-24 09:33N 35°22' E 139°54'0 0.0
2015-Mar-24 08:33N 35°22' E 139°54'0 0.0
2015-Mar-24 07:33N 35°22' E 139°54'0 0.0
2015-Mar-24 06:33N 35°22' E 139°54'0 0.0
2015-Mar-24 05:34N 35°22' E 139°54'0 0.0
2015-Mar-24 04:33N 35°22' E 139°54'0 0.0
2015-Mar-24 03:33N 35°22' E 139°54'0 0.0
2015-Mar-24 02:33N 35°22' E 139°54'0 0.1
2015-Mar-24 01:33N 35°22' E 139°54'0 0.0
2015-Mar-24 00:33N 35°22' E 139°54'0 0.0
2015-Mar-23 23:33N 35°22' E 139°54'0 0.2
2015-Mar-23 22:33N 35°22' E 139°54'3 2.6
2015-Mar-23 21:33N 35°23' E 139°51'0 0.0
2015-Mar-23 20:34N 35°23' E 139°51'0 0.0
2015-Mar-23 19:34N 35°23' E 139°51'0 0.0
2015-Mar-23 18:33N 35°23' E 139°51'0 0.1
2015-Mar-23 17:34N 35°23' E 139°51'0 0.1
2015-Mar-23 16:33N 35°23' E 139°51'0 0.0
2015-Mar-23 15:33N 35°23' E 139°51'0 0.0
2015-Mar-23 14:33N 35°23' E 139°51'0 0.0
2015-Mar-23 13:34N 35°23' E 139°51'0 0.0
2015-Mar-23 12:34N 35°23' E 139°51'0 0.0
2015-Mar-23 11:34N 35°23' E 139°51'0 0.0
2015-Mar-23 10:34N 35°23' E 139°51'0 0.1
2015-Mar-23 09:33N 35°23' E 139°51'0 0.1
2015-Mar-23 08:33N 35°23' E 139°51'0 0.0
2015-Mar-23 07:34N 35°23' E 139°51'0 0.1
2015-Mar-23 06:34N 35°23' E 139°51'9 8.5
2015-Mar-23 05:33N 35°32' E 139°54'10 9.9
2015-Mar-23 04:33N 35°41' E 139°59'0 0.0
2015-Mar-23 03:33N 35°41' E 139°59'0 0.0
2015-Mar-23 02:33N 35°41' E 139°59'0 0.0
2015-Mar-23 01:33N 35°41' E 139°59'0 0.0
2015-Mar-23 00:33N 35°41' E 139°59'0 0.0
2015-Mar-22 23:33N 35°41' E 139°59'0 0.0
2015-Mar-22 22:33N 35°41' E 139°59'0 0.0
2015-Mar-22 21:33N 35°41' E 139°59'0 0.0
2015-Mar-22 20:33N 35°41' E 139°59'0 0.0
2015-Mar-22 19:33N 35°41' E 139°59'0 0.0
2015-Mar-22 18:33N 35°41' E 139°59'0 0.0
2015-Mar-22 17:33N 35°41' E 139°59'0 0.0
2015-Mar-22 16:33N 35°41' E 139°59'0 0.0
2015-Mar-22 15:33N 35°41' E 139°59'0 0.0
2015-Mar-22 14:33N 35°41' E 139°59'0 0.0
2015-Mar-22 13:33N 35°41' E 139°59'0 0.0
2015-Mar-22 12:33N 35°41' E 139°59'0 0.0
2015-Mar-22 11:33N 35°41' E 139°59'0 0.0
2015-Mar-22 10:33N 35°41' E 139°59'17 1.1
2015-Mar-21 18:12N 35°26' E 139°48'812.5
2015-Mar-21 17:33N 35°18' E 139°45'1211.9
2015-Mar-21 16:33N 35°06' E 139°44'1312.9
2015-Mar-21 15:31N 34°57' E 139°31'  
Track history (hours):
 
Tides and Currents Weather Stations Pressure Air Temp Water Temp Dewpoint Dewpoint Depression Visibility Wind Speed Wind Dir Waves Ship Positions

Nisshoumaru

Last reported at 2015-Mar-27 05:07 UTC. Time now 2015-Mar-31 06:47 UTC.
Position N 34°37' E 134°54'.

Length 76 m; draft 4 m.

Type: Cargo ship. MMSI: 431001549.

Date/timePositionNaut miles runAvg speedWind from/ knotsBaromVisibWave heightAir tempDewpointWater temp
2015-Mar-27 05:07N 34°37' E 134°54'812.9
2015-Mar-27 04:32N 34°36' E 135°04'1111.5
2015-Mar-27 03:33N 34°34' E 135°17'6 6.3
2015-Mar-27 02:32N 34°31' E 135°24'0 0.0
2015-Mar-27 01:33N 34°31' E 135°24'0 0.0
2015-Mar-27 00:31N 34°31' E 135°24'0 0.0
2015-Mar-26 23:29N 34°31' E 135°24'2 1.8
2015-Mar-26 22:27N 34°32' E 135°22'0 0.1
2015-Mar-26 21:30N 34°32' E 135°22'0 0.1
2015-Mar-26 20:29N 34°32' E 135°22'1112.2
2015-Mar-26 19:33N 34°26' E 135°10'1312.2
2015-Mar-26 18:29N 34°17' E 134°59'22910.0
2015-Mar-25 19:31N 35°02' E 139°32'1212.4
2015-Mar-25 18:33N 35°09' E 139°44'1211.9
2015-Mar-25 17:34N 35°21' E 139°42'8 7.9
2015-Mar-25 16:34N 35°22' E 139°52'1 1.4
2015-Mar-25 15:33N 35°22' E 139°54'0 0.0
2015-Mar-25 14:34N 35°22' E 139°54'0 0.1
2015-Mar-25 13:33N 35°22' E 139°54'0 0.0
2015-Mar-25 12:33N 35°22' E 139°54'0 0.0
2015-Mar-25 11:33N 35°22' E 139°54'0 0.0
2015-Mar-25 10:33N 35°22' E 139°54'0 0.0
2015-Mar-25 09:29N 35°22' E 139°54'0 0.0
2015-Mar-25 08:33N 35°22' E 139°54'0 0.1
2015-Mar-25 07:33N 35°22' E 139°54'0 0.0
2015-Mar-25 06:34N 35°22' E 139°54'0 0.0
2015-Mar-25 05:34N 35°22' E 139°54'0 0.0
2015-Mar-25 04:33N 35°22' E 139°54'0 0.0
2015-Mar-25 03:33N 35°22' E 139°54'0 0.0
2015-Mar-25 02:33N 35°22' E 139°54'0 0.0
2015-Mar-25 01:33N 35°22' E 139°54'0 0.0
2015-Mar-25 00:33N 35°22' E 139°54'0 0.0
2015-Mar-24 23:33N 35°22' E 139°54'0 0.0
2015-Mar-24 22:33N 35°22' E 139°54'0 0.0
2015-Mar-24 21:33N 35°22' E 139°54'0 0.0
2015-Mar-24 20:33N 35°22' E 139°54'0 0.0
2015-Mar-24 19:33N 35°22' E 139°54'0 0.0
2015-Mar-24 18:34N 35°22' E 139°54'0 0.0
2015-Mar-24 17:34N 35°22' E 139°54'0 0.0
2015-Mar-24 16:32N 35°22' E 139°54'0 0.0
2015-Mar-24 15:33N 35°22' E 139°54'0 0.0
2015-Mar-24 14:33N 35°22' E 139°54'0 0.0
2015-Mar-24 13:33N 35°22' E 139°54'0 0.0
2015-Mar-24 12:33N 35°22' E 139°54'0 0.0
2015-Mar-24 11:33N 35°22' E 139°54'0 0.0
2015-Mar-24 10:33N 35°22' E 139°54'0 0.0
2015-Mar-24 09:33N 35°22' E 139°54'0 0.0
2015-Mar-24 08:33N 35°22' E 139°54'0 0.0
2015-Mar-24 07:33N 35°22' E 139°54'0 0.0
2015-Mar-24 06:33N 35°22' E 139°54'0 0.0
2015-Mar-24 05:34N 35°22' E 139°54'0 0.0
2015-Mar-24 04:33N 35°22' E 139°54'0 0.0
2015-Mar-24 03:33N 35°22' E 139°54'0 0.0
2015-Mar-24 02:33N 35°22' E 139°54'0 0.1
2015-Mar-24 01:33N 35°22' E 139°54'0 0.0
2015-Mar-24 00:33N 35°22' E 139°54'0 0.0
2015-Mar-23 23:33N 35°22' E 139°54'0 0.2
2015-Mar-23 22:33N 35°22' E 139°54'3 2.6
2015-Mar-23 21:33N 35°23' E 139°51'0 0.0
2015-Mar-23 20:34N 35°23' E 139°51'0 0.0
2015-Mar-23 19:34N 35°23' E 139°51'0 0.0
2015-Mar-23 18:33N 35°23' E 139°51'0 0.1
2015-Mar-23 17:34N 35°23' E 139°51'0 0.1
2015-Mar-23 16:33N 35°23' E 139°51'0 0.0
2015-Mar-23 15:33N 35°23' E 139°51'0 0.0
2015-Mar-23 14:33N 35°23' E 139°51'0 0.0
2015-Mar-23 13:34N 35°23' E 139°51'0 0.0
2015-Mar-23 12:34N 35°23' E 139°51'0 0.0
2015-Mar-23 11:34N 35°23' E 139°51'0 0.0
2015-Mar-23 10:34N 35°23' E 139°51'0 0.1
2015-Mar-23 09:33N 35°23' E 139°51'0 0.1
2015-Mar-23 08:33N 35°23' E 139°51'0 0.0
2015-Mar-23 07:34N 35°23' E 139°51'0 0.1
2015-Mar-23 06:34N 35°23' E 139°51'9 8.5
2015-Mar-23 05:33N 35°32' E 139°54'10 9.9
2015-Mar-23 04:33N 35°41' E 139°59'0 0.0
2015-Mar-23 03:33N 35°41' E 139°59'0 0.0
2015-Mar-23 02:33N 35°41' E 139°59'0 0.0
2015-Mar-23 01:33N 35°41' E 139°59'0 0.0
2015-Mar-23 00:33N 35°41' E 139°59'0 0.0
2015-Mar-22 23:33N 35°41' E 139°59'0 0.0
2015-Mar-22 22:33N 35°41' E 139°59'0 0.0
2015-Mar-22 21:33N 35°41' E 139°59'0 0.0
2015-Mar-22 20:33N 35°41' E 139°59'0 0.0
2015-Mar-22 19:33N 35°41' E 139°59'0 0.0
2015-Mar-22 18:33N 35°41' E 139°59'0 0.0
2015-Mar-22 17:33N 35°41' E 139°59'0 0.0
2015-Mar-22 16:33N 35°41' E 139°59'0 0.0
2015-Mar-22 15:33N 35°41' E 139°59'0 0.0
2015-Mar-22 14:33N 35°41' E 139°59'0 0.0
2015-Mar-22 13:33N 35°41' E 139°59'0 0.0
2015-Mar-22 12:33N 35°41' E 139°59'0 0.0
2015-Mar-22 11:33N 35°41' E 139°59'0 0.0
2015-Mar-22 10:33N 35°41' E 139°59'17 1.1
2015-Mar-21 18:12N 35°26' E 139°48'812.5
2015-Mar-21 17:33N 35°18' E 139°45'1211.9
2015-Mar-21 16:33N 35°06' E 139°44'1312.9
2015-Mar-21 15:31N 34°57' E 139°31'  

Dump ship's entire track history